Time;durP1;ratioP1;P1;durP2;ratioP2;P2;SDS_P1;SDS_P2;PMS_P1;PMS_P2;Temp;Humidity;BMP_temperature;BMP_pressure;BME280_temperature;BME280_humidity;BME280_pressure;Samples;Min_cycle;Max_cycle;Signal;HPM_P1;HPM_P2
2021/06/09 00:01:14;;;;;;;22.10;19.87;;;;;;;;;;5034607;28;20455;-88
2021/06/09 00:03:42;;;;;;;22.47;20.17;;;15.00;99.90;;;;;;5035745;28;20814;-88
2021/06/09 00:06:09;;;;;;;20.73;18.77;;;;;;;;;;5034302;28;20844;-87
2021/06/09 00:08:37;;;;;;;22.67;20.27;;;15.00;99.90;;;;;;5030662;28;20474;-86
2021/06/09 00:11:04;;;;;;;22.30;20.10;;;;;;;;;;5033686;28;20482;-87
2021/06/09 00:13:32;;;;;;;23.20;18.53;;;14.90;99.90;;;;;;5034536;28;20462;-89
2021/06/09 00:16:03;;;;;;;20.57;18.57;;;14.90;99.90;;;;;;5034544;28;20448;-85
2021/06/09 00:18:30;;;;;;;20.77;18.77;;;;;;;;;;5034180;28;20452;-85
2021/06/09 00:20:57;;;;;;;21.23;19.13;;;14.80;99.90;;;;;;5034483;28;20530;-85
2021/06/09 00:23:26;;;;;;;20.20;18.10;;;;;;;;;;5033143;28;20455;-88
2021/06/09 00:25:53;;;;;;;20.20;18.20;;;;;;;;;;5034068;28;20961;-86
2021/06/09 00:28:20;;;;;;;19.30;17.17;;;14.60;99.90;;;;;;5033982;28;20447;-85
2021/06/09 00:30:47;;;;;;;22.43;18.67;;;;;;;;;;5033870;28;20490;-86
2021/06/09 00:33:14;;;;;;;19.57;17.70;;;;;;;;;;5033935;28;20475;-89
2021/06/09 00:35:40;;;;;;;22.63;18.50;;;;;;;;;;5033780;28;20448;-89
2021/06/09 00:38:08;;;;;;;22.33;19.20;;;14.50;99.90;;;;;;5032857;28;20533;-86
2021/06/09 00:40:36;;;;;;;22.90;20.40;;;14.50;99.90;;;;;;5034224;28;20508;-88
2021/06/09 00:43:05;;;;;;;20.90;18.80;;;14.50;99.90;;;;;;5032864;28;20458;-87
2021/06/09 00:45:32;;;;;;;23.83;21.13;;;;;;;;;;5033623;28;20512;-86
2021/06/09 00:47:59;;;;;;;23.07;20.60;;;;;;;;;;5033710;28;20485;-87
2021/06/09 00:50:25;;;;;;;25.60;20.27;;;;;;;;;;5033715;28;20495;-90
2021/06/09 00:52:52;;;;;;;21.93;19.47;;;;;;;;;;5035000;28;20970;-86
2021/06/09 00:55:20;;;;;;;21.53;19.30;;;14.30;99.90;;;;;;5033911;28;20451;-89
2021/06/09 00:57:47;;;;;;;22.33;19.83;;;;;;;;;;5033926;28;20460;-87
2021/06/09 01:00:14;;;;;;;22.70;20.37;;;;;;;;;;5033680;28;20789;-86
2021/06/09 01:02:40;;;;;;;22.43;20.27;;;;;;;;;;5033926;28;20453;-88
2021/06/09 01:05:08;;;;;;;21.27;19.17;;;14.30;99.90;;;;;;5033915;28;20482;-88
2021/06/09 01:07:37;;;;;;;25.40;19.27;;;14.30;99.90;;;;;;5032655;28;20448;-87
2021/06/09 01:10:06;;;;;;;21.60;19.40;;;14.30;99.90;;;;;;5033254;28;20987;-85
2021/06/09 01:12:35;;;;;;;25.33;21.67;;;14.20;99.90;;;;;;5033284;28;20470;-87
2021/06/09 01:15:01;;;;;;;22.33;19.93;;;14.30;99.90;;;;;;5015191;28;20466;-85
2021/06/09 01:17:28;;;;;;;22.50;20.10;;;;;;;;;;5033272;28;20447;-87
2021/06/09 01:19:56;;;;;;;23.83;21.40;;;14.40;99.90;;;;;;5033323;28;20462;-87
2021/06/09 01:22:24;;;;;;;21.40;19.27;;;14.30;99.90;;;;;;5032126;28;20495;-88
2021/06/09 01:24:51;;;;;;;23.63;21.10;;;14.30;99.90;;;;;;5033326;28;20467;-88
2021/06/09 01:27:23;;;;;;;26.30;22.40;;;14.40;99.90;;;;;;5033076;28;20453;-89
2021/06/09 01:29:50;;;;;;;26.83;23.97;;;;;;;;;;5033635;28;20532;-89
2021/06/09 01:32:25;;;;;;;25.73;23.03;;;14.50;99.90;;;;;;5033323;28;20494;-87
2021/06/09 01:34:52;;;;;;;25.67;23.07;;;;;;;;;;5033290;28;20447;-86
2021/06/09 01:37:19;;;;;;;24.27;21.83;;;;;;;;;;5032128;28;20479;-87
2021/06/09 01:39:46;;;;;;;25.07;22.57;;;14.60;99.90;;;;;;5033252;28;20459;-87
2021/06/09 01:42:13;;;;;;;24.20;21.80;;;;;;;;;;5033597;28;20525;-87
2021/06/09 01:44:40;;;;;;;25.37;22.63;;;14.70;99.90;;;;;;5035925;28;20443;-86
2021/06/09 01:47:07;;;;;;;25.20;22.43;;;14.70;99.90;;;;;;5032541;28;20799;-89
2021/06/09 01:49:34;;;;;;;23.53;21.00;;;;;;;;;;5033064;28;20533;-87
2021/06/09 01:52:01;;;;;;;26.63;23.87;;;;;;;;;;5035213;28;20934;-87
2021/06/09 01:54:27;;;;;;;26.80;24.00;;;;;;;;;;5022410;28;20462;-88
2021/06/09 01:56:55;;;;;;;22.33;20.13;;;14.70;99.90;;;;;;5036916;28;20455;-90
2021/06/09 01:59:22;;;;;;;26.50;23.80;;;;;;;;;;5036891;28;20458;-88
2021/06/09 02:01:49;;;;;;;24.27;21.67;;;14.70;99.90;;;;;;5040134;28;20451;-89
2021/06/09 02:04:17;;;;;;;23.00;20.70;;;14.70;99.90;;;;;;5036666;28;20451;-88
2021/06/09 02:06:45;;;;;;;24.57;21.47;;;14.80;99.90;;;;;;5035605;28;20908;-88
2021/06/09 02:09:12;;;;;;;24.50;21.90;;;14.80;99.90;;;;;;5037938;28;20463;-89
2021/06/09 02:11:39;;;;;;;26.17;22.80;;;;;;;;;;5037584;28;20807;-87
2021/06/09 02:14:07;;;;;;;24.70;22.10;;;14.70;99.90;;;;;;5018314;28;20451;-87
2021/06/09 02:16:34;;;;;;;25.60;23.10;;;14.60;99.90;;;;;;5036505;28;20444;-86
2021/06/09 02:19:01;;;;;;;26.27;23.53;;;;;;;;;;5036476;28;20453;-86
2021/06/09 02:21:28;;;;;;;25.40;22.77;;;;;;;;;;5035398;28;20452;-86
2021/06/09 02:23:54;;;;;;;27.50;21.40;;;;;;;;;;5036545;28;20475;-86
2021/06/09 02:26:22;;;;;;;23.57;21.17;;;;;;;;;;5036515;28;20447;-87
2021/06/09 02:28:48;;;;;;;25.77;23.07;;;;;;;;;;5039121;28;20990;-87
2021/06/09 02:31:18;;;;;;;23.27;20.97;;;14.70;99.90;;;;;;5036414;28;20495;-86
2021/06/09 02:33:44;;;;;;;25.10;22.60;;;;;;;;;;5035693;28;20471;-87
2021/06/09 02:36:11;;;;;;;25.90;22.30;;;;;;;;;;5035736;28;20455;-88
2021/06/09 02:38:38;;;;;;;26.07;21.97;;;14.70;99.90;;;;;;5034857;28;20439;-90
2021/06/09 02:41:05;;;;;;;25.97;23.17;;;14.80;99.90;;;;;;5036039;28;20459;-87
2021/06/09 02:43:32;;;;;;;25.03;22.40;;;;;;;;;;5036184;28;20443;-86
2021/06/09 02:46:05;;;;;;;25.63;23.03;;;14.80;99.90;;;;;;5035870;28;20542;-88
2021/06/09 02:48:34;;;;;;;26.13;23.43;;;14.90;99.90;;;;;;5038525;28;20447;-87
2021/06/09 02:51:02;;;;;;;26.60;23.73;;;14.80;99.90;;;;;;5035585;28;20491;-88
2021/06/09 02:53:32;;;;;;;29.40;21.63;;;14.80;99.90;;;;;;5035429;28;20478;-87
2021/06/09 02:56:25;;;;;;;25.10;22.20;;;14.80;99.90;;;;;;5035603;28;20923;-88
2021/06/09 02:58:59;;;;;;;23.83;20.87;;;14.80;99.90;;;;;;5032826;28;20455;-87
2021/06/09 03:01:32;;;;;;;23.83;21.43;;;14.80;99.90;;;;;;5035792;28;20452;-87
2021/06/09 03:04:08;;;;;;;25.90;22.27;;;14.80;99.90;;;;;;5035083;28;20447;-87
2021/06/09 03:06:40;;;;;;;24.07;21.37;;;14.80;99.90;;;;;;5035994;28;20443;-87
2021/06/09 03:09:11;;;;;;;24.13;21.53;;;14.80;99.90;;;;;;5035654;28;20444;-88
2021/06/09 03:11:45;;;;;;;24.47;21.87;;;14.80;99.90;;;;;;5035513;28;20457;-87
2021/06/09 03:15:09;;;;;;;23.60;20.97;;;14.70;99.90;;;;;;5035468;28;20558;-87
2021/06/09 03:17:16;;;;;;;22.43;20.13;;;14.70;99.90;;;;;;5035227;28;20490;-90
2021/06/09 03:19:50;;;;;;;24.73;22.13;;;14.70;99.90;;;;;;5035296;28;20454;-89
2021/06/09 03:22:24;;;;;;;22.93;20.60;;;14.70;99.90;;;;;;5035311;28;20459;-87
2021/06/09 03:24:54;;;;;;;23.40;21.00;;;14.60;99.90;;;;;;5035151;28;20490;-88
2021/06/09 03:27:25;;;;;;;23.47;21.13;;;14.70;99.90;;;;;;5035029;28;20469;-89
2021/06/09 03:29:55;;;;;;;24.90;22.20;;;14.70;99.90;;;;;;5035023;28;20566;-87
2021/06/09 03:32:27;;;;;;;22.57;20.23;;;14.70;99.90;;;;;;5037604;28;20474;-87
2021/06/09 03:35:00;;;;;;;23.47;20.97;;;14.70;99.90;;;;;;5033748;28;20448;-87
2021/06/09 03:37:27;;;;;;;22.80;20.57;;;14.80;99.90;;;;;;5033347;28;20525;-87
2021/06/09 03:39:57;;;;;;;24.47;21.30;;;14.80;99.90;;;;;;5035219;28;20459;-86
2021/06/09 03:42:28;;;;;;;28.67;22.73;;;14.80;99.90;;;;;;5034911;28;20443;-89
2021/06/09 03:44:57;;;;;;;24.90;22.30;;;14.80;99.90;;;;;;5035559;28;20497;-88
2021/06/09 03:47:24;;;;;;;24.90;22.37;;;;;;;;;;5034851;28;20456;-88
2021/06/09 03:49:51;;;;;;;25.20;21.63;;;;;;;;;;5034772;28;20495;-88
2021/06/09 03:52:19;;;;;;;23.87;21.33;;;14.80;99.90;;;;;;5033648;28;20458;-89
2021/06/09 03:54:50;;;;;;;26.73;22.07;;;14.80;99.90;;;;;;5031480;28;20443;-90
2021/06/09 03:57:17;;;;;;;24.73;21.97;;;;;;;;;;5031870;28;20455;-88
2021/06/09 03:59:46;;;;;;;25.20;21.80;;;14.80;99.90;;;;;;5034656;28;20454;-89
2021/06/09 04:02:13;;;;;;;23.83;21.33;;;;;;;;;;5034807;28;20459;-89
2021/06/09 04:04:40;;;;;;;23.50;21.23;;;;;;;;;;5034622;28;20447;-90
2021/06/09 04:07:08;;;;;;;23.17;20.77;;;15.00;99.90;;;;;;5033310;28;21016;-87
2021/06/09 04:09:38;;;;;;;21.83;19.47;;;15.00;99.90;;;;;;5034270;28;20467;-88
2021/06/09 04:12:08;;;;;;;23.83;21.40;;;15.10;99.90;;;;;;5016010;28;20464;-87
2021/06/09 04:14:44;;;;;;;22.87;20.63;;;15.00;99.90;;;;;;5035706;28;20454;-89
2021/06/09 04:17:29;;;;;;;22.40;20.20;;;15.00;99.90;;;;;;5037343;28;20810;-86
2021/06/09 04:20:02;;;;;;;26.30;22.67;;;15.00;99.90;;;;;;5035400;28;20519;-86
2021/06/09 04:22:30;;;;;;;23.40;21.07;;;;;;;;;;5029998;28;20454;-86
2021/06/09 04:25:01;;;;;;;25.17;22.57;;;;;;;;;;5034925;28;20444;-86
2021/06/09 04:27:30;;;;;;;24.00;21.67;;;;;;;;;;5027817;28;20474;-85
2021/06/09 04:29:57;;;;;;;22.97;20.67;;;15.30;99.90;;;;;;5033209;28;20541;-85
2021/06/09 04:32:26;;;;;;;28.70;23.33;;;15.30;99.90;;;;;;5033050;28;20529;-86
2021/06/09 04:34:59;;;;;;;24.97;22.27;;;15.40;99.90;;;;;;5029207;28;20443;-87
2021/06/09 04:37:26;;;;;;;25.43;22.93;;;15.40;99.90;;;;;;5041006;28;20474;-89
2021/06/09 04:39:54;;;;;;;23.30;20.90;;;;;;;;;;5053785;28;20461;-91
2021/06/09 04:42:23;;;;;;;25.60;23.10;;;;;;;;;;5053736;28;20453;-87
2021/06/09 04:44:50;;;;;;;23.57;21.27;;;;;;;;;;5053660;28;20441;-89
2021/06/09 04:47:20;;;;;;;23.33;21.00;;;;;;;;;;5055842;28;20435;-90
2021/06/09 04:49:47;;;;;;;25.83;22.37;;;;;;;;;;5052848;28;20513;-90
2021/06/09 04:52:19;;;;;;;25.40;22.60;;;15.70;99.90;;;;;;5052049;28;20489;-88
2021/06/09 04:54:49;;;;;;;23.43;21.03;;;;;;;;;;5052953;28;20541;-87
2021/06/09 04:57:15;;;;;;;22.53;20.27;;;;;;;;;;5053987;28;20462;-88
2021/06/09 04:59:43;;;;;;;22.13;19.73;;;15.80;99.90;;;;;;5051237;28;20445;-91
2021/06/09 05:02:09;;;;;;;23.73;21.43;;;;;;;;;;5053919;28;20515;-88
2021/06/09 05:04:36;;;;;;;22.27;20.07;;;;;;;;;;5055210;28;20455;-90
2021/06/09 05:07:03;;;;;;;22.93;20.53;;;;;;;;;;5053210;28;20451;-89
2021/06/09 05:09:30;;;;;;;24.80;20.70;;;;;;;;;;5056230;28;20446;-87
2021/06/09 05:12:02;;;;;;;24.93;20.30;;;16.20;99.90;;;;;;5057511;28;20441;-86
2021/06/09 05:14:32;;;;;;;21.77;19.57;;;16.30;99.90;;;;;;5055892;28;20802;-86
2021/06/09 05:17:02;;;;;;;21.50;19.40;;;16.30;99.90;;;;;;5054740;28;20508;-85
2021/06/09 05:19:31;;;;;;;24.80;21.43;;;16.30;99.90;;;;;;5021361;28;20442;-85
2021/06/09 05:22:04;;;;;;;22.90;20.70;;;16.40;99.90;;;;;;5055601;28;20450;-89
2021/06/09 05:24:33;;;;;;;21.73;19.53;;;16.50;99.90;;;;;;5057565;28;20438;-88
2021/06/09 05:27:01;;;;;;;21.07;18.93;;;;;;;;;;5058092;28;20806;-87
2021/06/09 05:29:29;;;;;;;21.33;19.13;;;16.60;99.90;;;;;;5056712;28;20440;-86
2021/06/09 05:31:57;;;;;;;22.33;20.03;;;;;;;;;;5058758;28;20970;-85
2021/06/09 05:34:26;;;;;;;21.70;19.40;;;16.70;99.90;;;;;;5061586;28;21137;-87
2021/06/09 05:36:53;;;;;;;22.00;19.17;;;;;;;;;;5057360;28;20478;-88
2021/06/09 05:39:19;;;;;;;20.40;18.20;;;;;;;;;;5057524;28;20439;-87
2021/06/09 05:41:46;;;;;;;21.13;19.13;;;;;;;;;;5057571;28;20458;-92
2021/06/09 05:44:14;;;;;;;20.00;17.90;;;17.10;99.90;;;;;;5058078;28;20450;-93
2021/06/09 05:46:43;;;;;;;18.03;16.23;;;;;;;;;;5059596;28;20430;-94
2021/06/09 05:49:09;;;;;;;14.60;13.20;;;;;;;;;;5058001;28;20839;-96
2021/06/09 05:51:37;;;;;;;19.47;17.57;;;17.60;99.90;;;;;;5056773;28;20481;-93
2021/06/09 05:54:04;;;;;;;19.27;17.47;;;;;;;;;;5058016;28;20450;-93
2021/06/09 05:56:31;;;;;;;17.63;16.03;;;;;;;;;;5044222;28;20440;-93
2021/06/09 05:58:58;;;;;;;18.40;16.73;;;;;;;;;;5038220;28;20443;-93
2021/06/09 06:01:25;;;;;;;16.57;14.97;;;;;;;;;;5039737;28;20549;-92
2021/06/09 06:03:53;;;;;;;17.07;15.50;;;19.40;99.90;;;;;;5038993;28;20510;-91
2021/06/09 06:06:20;;;;;;;15.07;13.63;;;;;;;;;;5036664;28;20440;-94
2021/06/09 06:08:47;;;;;;;15.33;13.83;;;20.10;99.90;;;;;;5044867;28;20438;-93
2021/06/09 06:11:14;;;;;;;15.30;13.93;;;;;;;;;;5038146;28;20490;-94
2021/06/09 06:13:42;;;;;;;15.90;14.60;;;20.20;99.90;;;;;;5038509;28;20440;-91
2021/06/09 06:16:09;;;;;;;15.47;14.17;;;;;;;;;;5038584;28;20474;-95
2021/06/09 06:18:38;;;;;;;14.50;12.87;;;20.70;99.90;;;;;;5042583;28;20459;-91
2021/06/09 06:21:05;;;;;;;14.27;12.90;;;;;;;;;;5037592;28;20482;-92
2021/06/09 06:23:32;;;;;;;13.63;12.43;;;21.20;99.90;;;;;;5035517;28;20959;-92
2021/06/09 06:26:00;;;;;;;14.10;12.90;;;21.30;99.90;;;;;;5040925;28;20462;-92
2021/06/09 06:28:27;;;;;;;15.20;13.90;;;;;;;;;;5037149;28;20816;-90
2021/06/09 06:30:54;;;;;;;13.50;12.40;;;21.20;99.90;;;;;;5036266;28;20563;-92
2021/06/09 06:33:24;;;;;;;14.33;13.13;;;21.40;99.90;;;;;;5036576;28;20436;-89
2021/06/09 06:35:51;;;;;;;14.33;13.03;;;;;;;;;;5036317;28;20497;-90
2021/06/09 06:38:19;;;;;;;14.00;12.80;;;21.50;99.90;;;;;;5036185;28;20986;-90
2021/06/09 06:40:47;;;;;;;12.80;11.80;;;;;;;;;;5037461;28;20456;-89
2021/06/09 06:43:15;;;;;;;13.53;12.13;;;;;;;;;;5037126;28;20514;-94
2021/06/09 06:45:43;;;;;;;13.73;12.63;;;21.30;99.90;;;;;;5039585;28;20455;-93
2021/06/09 06:48:10;;;;;;;14.13;12.70;;;;;;;;;;5037639;28;20455;-90
2021/06/09 06:50:39;;;;;;;15.10;13.93;;;21.10;99.90;;;;;;5054714;28;21047;-93
2021/06/09 06:53:06;;;;;;;15.37;14.00;;;20.90;99.90;;;;;;5054232;28;20941;-91
2021/06/09 06:55:33;;;;;;;13.93;12.73;;;;;;;;;;5055919;28;21081;-90
2021/06/09 06:58:00;;;;;;;14.60;13.40;;;;;;;;;;5055488;28;20446;-89
2021/06/09 07:00:28;;;;;;;14.97;13.60;;;20.70;99.90;;;;;;5055570;28;20466;-89
2021/06/09 07:02:57;;;;;;;14.20;13.00;;;20.60;99.90;;;;;;5054042;28;20446;-91
2021/06/09 07:05:27;;;;;;;15.70;14.30;;;20.80;99.90;;;;;;5055580;28;20452;-88
2021/06/09 07:07:56;;;;;;;15.30;13.80;;;21.30;99.90;;;;;;5039151;28;20487;-89
2021/06/09 07:10:23;;;;;;;15.07;13.77;;;21.20;99.90;;;;;;5035971;28;20896;-91
2021/06/09 07:12:51;;;;;;;15.97;13.93;;;21.50;99.90;;;;;;5036262;28;20978;-93
2021/06/09 07:15:19;;;;;;;15.73;14.23;;;21.80;99.90;;;;;;5038357;28;20448;-92
2021/06/09 07:17:49;;;;;;;14.90;13.60;;;22.00;99.90;;;;;;5055428;28;20518;-91
2021/06/09 07:20:19;;;;;;;14.67;13.47;;;22.00;99.90;;;;;;5055854;28;20442;-90
2021/06/09 07:22:46;;;;;;;14.53;13.13;;;21.70;99.90;;;;;;5055291;28;20458;-92
2021/06/09 07:25:13;;;;;;;14.10;12.90;;;;;;;;;;5056422;28;20794;-92
2021/06/09 07:27:42;;;;;;;15.83;14.23;;;21.50;99.90;;;;;;5055911;28;20446;-92
2021/06/09 07:30:11;;;;;;;14.60;13.07;;;21.60;99.90;;;;;;5055310;28;20478;-89
2021/06/09 07:32:41;;;;;;;14.47;13.27;;;21.90;99.90;;;;;;5052998;28;20459;-88
2021/06/09 07:35:11;;;;;;;15.77;14.20;;;22.20;99.90;;;;;;5055853;28;20449;-94
2021/06/09 07:37:42;;;;;;;14.77;13.47;;;22.60;99.90;;;;;;5052949;28;20478;-93
2021/06/09 07:40:12;;;;;;;16.77;15.20;;;23.00;99.90;;;;;;5055773;28;20458;-95
2021/06/09 07:42:42;;;;;;;15.40;14.20;;;22.90;99.90;;;;;;5050033;28;20493;-87
2021/06/09 07:45:10;;;;;;;14.87;13.50;;;23.20;99.90;;;;;;5054369;28;20964;-88
2021/06/09 07:47:40;;;;;;;16.80;15.10;;;23.60;99.90;;;;;;5052409;28;20439;-88
2021/06/09 07:50:13;;;;;;;14.57;13.37;;;24.20;99.90;;;;;;5034762;28;20488;-96
2021/06/09 07:52:42;;;;;;;14.40;13.20;;;24.20;99.90;;;;;;5037801;28;20456;-94
2021/06/09 07:55:11;;;;;;;15.40;13.90;;;;;;;;;;5042095;28;20455;-93
2021/06/09 07:57:39;;;;;;;15.90;14.70;;;;;;;;;;5037202;28;20464;-93
2021/06/09 08:03:24;;;;;;;13.90;12.50;;;23.30;99.90;;;;;;5164190;27;88232;-95
2021/06/09 08:05:52;;;;;;;15.30;13.90;;;;;;;;;;5135230;28;20850;-92
2021/06/09 08:08:18;;;;;;;14.67;13.33;;;;;;;;;;5136040;27;20808;-92
2021/06/09 08:10:46;;;;;;;14.23;12.93;;;;;;;;;;5136251;27;20439;-93
2021/06/09 08:13:13;;;;;;;14.60;13.40;;;;;;;;;;5133865;27;20448;-92
2021/06/09 08:18:28;;;;;;;14.07;12.87;;;23.60;99.90;;;;;;5138926;22;20487;-89
2021/06/09 08:21:16;;;;;;;14.80;13.60;;;;;;;;;;5120110;28;20473;-94
2021/06/09 08:23:46;;;;;;;15.10;13.80;;;24.70;99.90;;;;;;5065097;28;20474;-94
2021/06/09 08:26:16;;;;;;;15.43;14.13;;;24.70;99.90;;;;;;5089549;28;20465;-91
2021/06/09 08:28:44;;;;;;;13.77;12.67;;;;;;;;;;5055840;28;20451;-92
2021/06/09 08:31:13;;;;;;;13.13;12.23;;;24.50;99.90;;;;;;5062708;28;20462;-95
2021/06/09 08:33:45;;;;;;;13.43;12.37;;;;;;;;;;5064178;28;20457;-93
2021/06/09 08:36:13;;;;;;;13.70;12.60;;;;;;;;;;5063738;28;20446;-93
2021/06/09 08:38:46;;;;;;;14.43;13.33;;;;;;;;;;5063134;28;20482;-92
2021/06/09 08:41:18;;;;;;;15.40;13.97;;;;;;;;;;5063359;28;20478;-94
2021/06/09 08:43:47;;;;;;;16.17;14.70;;;;;;;;;;5043010;28;20440;-94
2021/06/09 08:46:16;;;;;;;16.47;15.10;;;24.00;99.90;;;;;;5036464;28;20483;-92
2021/06/09 08:49:01;;;;;;;15.90;14.50;;;;;;;;;;5000924;28;20445;-94
2021/06/09 08:51:31;;;;;;;15.17;13.97;;;;;;;;;;5001944;28;20551;-93
2021/06/09 08:53:58;;;;;;;16.37;14.83;;;;;;;;;;4995547;28;20543;-92
2021/06/09 08:56:26;;;;;;;16.87;15.40;;;;;;;;;;4998251;28;20456;-94
2021/06/09 08:59:15;;;;;;;16.90;15.53;;;23.20;99.90;;;;;;4996650;28;20481;-93
2021/06/09 09:01:42;;;;;;;17.50;15.77;;;;;;;;;;4978078;28;20611;-94
2021/06/09 09:04:15;;;;;;;16.93;15.43;;;;;;;;;;4997668;28;20461;-93
2021/06/09 09:06:42;;;;;;;17.53;16.03;;;;;;;;;;4971778;28;20444;-85
2021/06/09 09:09:09;;;;;;;16.53;15.07;;;;;;;;;;5027189;28;20447;-85
2021/06/09 09:11:36;;;;;;;15.80;14.43;;;;;;;;;;5026729;28;20445;-85
2021/06/09 09:14:02;;;;;;;16.17;14.37;;;;;;;;;;5016185;28;20572;-87
2021/06/09 09:16:29;;;;;;;15.13;13.93;;;;;;;;;;5013949;28;20944;-85
2021/06/09 09:19:00;;;;;;;15.20;14.00;;;;;;;;;;5016476;28;20494;-84
2021/06/09 09:21:37;;;;;;;17.03;15.53;;;24.20;99.90;;;;;;5035224;28;20491;-85
2021/06/09 09:24:08;;;;;;;16.43;15.03;;;24.80;99.90;;;;;;5035630;28;20457;-85
2021/06/09 09:26:35;;;;;;;15.63;14.43;;;;;;;;;;5035871;28;20452;-88
2021/06/09 09:29:12;;;;;;;14.83;13.63;;;24.30;99.90;;;;;;5035735;28;20451;-84
2021/06/09 09:31:50;;;;;;;14.33;13.23;;;24.40;99.90;;;;;;5035911;28;20448;-84
2021/06/09 09:34:27;;;;;;;15.77;14.17;;;24.60;99.90;;;;;;5026316;28;20459;-83
2021/06/09 09:37:04;;;;;;;16.00;14.50;;;24.00;99.90;;;;;;5033263;28;20440;-85
2021/06/09 09:39:31;;;;;;;15.20;13.90;;;;;;;;;;5036112;28;20451;-93
2021/06/09 09:42:30;;;;;;;15.90;14.27;;;25.40;99.90;;;;;;5036124;28;20483;-91
2021/06/09 09:45:18;;;;;;;15.10;13.80;;;26.80;99.90;;;;;;5041822;28;20458;-93
2021/06/09 09:47:48;;;;;;;17.03;15.53;;;;;;;;;;5044060;28;20428;-95
2021/06/09 10:08:38;;;;;;;15.83;14.10;;;;;;;;;;5624981;23;20232;-95
2021/06/09 10:11:10;;;;;;;14.70;13.50;;;;;;;;;;5045048;28;20473;-94
2021/06/09 10:13:42;;;;;;;13.33;12.23;;;;;;;;;;5052212;28;20451;-94
2021/06/09 10:16:33;;;;;;;12.73;11.73;;;;;;;;;;5299646;22;20506;-94
2021/06/09 10:19:14;;;;;;;13.13;12.13;;;;;;;;;;5056865;28;20422;-95
2021/06/09 10:32:52;;;;;;;14.80;13.60;;;25.40;99.90;;;;;;5477311;23;20499;-86
2021/06/09 10:35:20;;;;;;;15.10;13.80;;;24.80;99.90;;;;;;5054272;28;20454;-91
2021/06/09 10:37:47;;;;;;;15.60;14.20;;;;;;;;;;5054132;28;20465;-89
2021/06/09 10:40:17;;;;;;;16.43;14.40;;;24.40;99.90;;;;;;5055148;28;20435;-92
2021/06/09 10:42:47;;;;;;;17.27;15.80;;;23.80;99.90;;;;;;5056626;28;20462;-94
2021/06/09 10:45:16;;;;;;;17.47;16.10;;;23.50;99.90;;;;;;5059889;28;20450;-91
2021/06/09 10:47:45;;;;;;;19.77;18.03;;;23.40;99.90;;;;;;5057217;28;20439;-92
2021/06/09 10:50:15;;;;;;;18.63;17.03;;;23.60;99.90;;;;;;5055651;28;20793;-92
2021/06/09 10:52:41;;;;;;;18.17;16.67;;;;;;;;;;5050630;28;20481;-93
2021/06/09 10:55:11;;;;;;;18.00;16.40;;;23.50;99.90;;;;;;5037753;28;20444;-93
2021/06/09 11:00:07;;;;;;;17.60;16.10;;;25.00;99.90;;;;;;5019613;28;20468;-94
2021/06/09 11:02:53;;;;;;;17.13;15.63;;;;;;;;;;5026631;28;20551;-93
2021/06/09 11:08:28;;;;;;;17.53;15.33;;;24.00;99.90;;;;;;5076814;28;20441;-87
2021/06/09 11:10:55;;;;;;;16.80;15.40;;;;;;;;;;5074994;28;20446;-88
2021/06/09 11:13:33;;;;;;;17.37;15.67;;;24.00;99.90;;;;;;5074297;28;20465;-84
2021/06/09 11:16:10;;;;;;;19.87;18.17;;;23.40;99.90;;;;;;5075802;28;20503;-84
2021/06/09 11:18:40;;;;;;;21.60;19.70;;;23.30;99.90;;;;;;5058918;28;20557;-91
2021/06/09 11:21:08;;;;;;;40.00;23.63;;;23.20;99.90;;;;;;5057898;28;20455;-90
2021/06/09 11:23:38;;;;;;;47.10;21.57;;;23.20;99.90;;;;;;5056913;28;20442;-89
2021/06/09 11:26:06;;;;;;;20.80;19.00;;;23.10;99.90;;;;;;5056351;28;20455;-90
2021/06/09 11:28:38;;;;;;;23.27;21.00;;;23.10;99.90;;;;;;5057575;28;20879;-85
2021/06/09 11:31:06;;;;;;;22.70;20.57;;;22.30;99.90;;;;;;5056439;28;20447;-92
2021/06/09 11:33:51;;;;;;;23.73;21.63;;;23.30;99.90;;;;;;5056939;28;20824;-89
2021/06/09 11:36:39;;;;;;;22.07;19.87;;;23.10;99.90;;;;;;5057751;28;20525;-86
2021/06/09 11:39:22;;;;;;;21.77;19.57;;;23.00;99.90;;;;;;5056694;28;20446;-86
2021/06/09 11:41:49;;;;;;;20.27;18.30;;;23.10;99.90;;;;;;5054035;28;20462;-85
2021/06/09 11:44:31;;;;;;;19.43;17.47;;;23.80;99.90;;;;;;5056189;28;20526;-88
2021/06/09 11:47:24;;;;;;;18.30;16.70;;;25.30;99.90;;;;;;5058183;28;20465;-94
2021/06/09 11:49:52;;;;;;;16.80;15.40;;;25.50;99.90;;;;;;5056685;28;20439;-88
2021/06/09 11:52:21;;;;;;;16.27;14.87;;;26.00;99.90;;;;;;5058022;28;20494;-90
2021/06/09 11:55:09;;;;;;;18.30;16.70;;;26.80;99.90;;;;;;5061922;28;20447;-92
2021/06/09 11:57:35;;;;;;;18.57;16.97;;;;;;;;;;5061674;28;20849;-92
2021/06/09 12:00:08;;;;;;;14.83;13.40;;;26.30;99.90;;;;;;5058186;28;20443;-88
2021/06/09 12:02:35;;;;;;;18.30;16.70;;;;;;;;;;5061628;28;20459;-89
2021/06/09 12:05:02;;;;;;;16.40;14.80;;;26.70;99.90;;;;;;5057217;28;20488;-89
2021/06/09 12:07:34;;;;;;;16.60;14.90;;;26.80;99.90;;;;;;5054814;28;20446;-89
2021/06/09 12:10:04;;;;;;;16.20;14.80;;;27.00;99.90;;;;;;5038646;28;20580;-89
2021/06/09 12:12:34;;;;;;;16.77;15.47;;;27.20;99.90;;;;;;5058576;28;20526;-92
2021/06/09 12:15:02;;;;;;;15.43;14.23;;;26.20;99.90;;;;;;5056643;28;20442;-91
2021/06/09 12:17:30;;;;;;;15.80;14.40;;;25.90;99.90;;;;;;5056525;28;20567;-90
2021/06/09 12:20:00;;;;;;;15.30;14.00;;;25.50;99.90;;;;;;5055159;28;20467;-91
2021/06/09 12:22:30;;;;;;;16.07;14.77;;;25.50;99.90;;;;;;5061323;28;20443;-92
2021/06/09 12:28:22;;;;;;;16.53;15.23;;;26.00;99.90;;;;;;5069822;28;21089;-89
2021/06/09 12:30:57;;;;;;;15.17;13.80;;;26.90;99.90;;;;;;5071217;28;20473;-90
2021/06/09 12:33:38;;;;;;;15.87;14.50;;;27.60;99.90;;;;;;5087999;23;20532;-93
2021/06/09 12:36:08;;;;;;;14.30;13.20;;;27.00;99.90;;;;;;5066419;28;20443;-89
2021/06/09 12:38:38;;;;;;;15.00;13.70;;;27.40;99.90;;;;;;5034405;28;20458;-93
2021/06/09 12:41:07;;;;;;;14.43;13.33;;;27.40;99.90;;;;;;5068319;28;20431;-90
2021/06/09 12:43:34;;;;;;;13.20;12.20;;;27.50;99.90;;;;;;5077400;23;21071;-89
2021/06/09 12:46:00;;;;;;;13.37;12.27;;;27.60;99.90;;;;;;5050015;28;20424;-90
2021/06/09 12:48:27;;;;;;;11.30;10.40;;;27.40;99.90;;;;;;5072070;23;20488;-90
2021/06/09 12:50:58;;;;;;;12.50;11.50;;;28.00;99.90;;;;;;5071860;28;20454;-94
2021/06/09 12:55:55;;;;;;;11.70;10.90;;;28.60;96.40;;;;;;5075885;23;20509;-91
2021/06/09 12:58:24;;;;;;;12.57;11.67;;;28.50;98.90;;;;;;5082096;23;20212;-90
2021/06/09 13:00:52;;;;;;;11.97;11.07;;;28.50;97.60;;;;;;5078198;28;20542;-91
2021/06/09 13:03:24;;;;;;;11.17;10.30;;;27.60;96.40;;;;;;5161336;23;20496;-90
2021/06/09 13:05:57;;;;;;;11.10;10.30;;;26.80;97.20;;;;;;5067660;28;20422;-90
2021/06/09 13:08:26;;;;;;;11.40;10.40;;;26.30;99.90;;;;;;5074300;28;20992;-88
2021/06/09 13:11:03;;;;;;;10.40;9.60;;;25.40;99.90;;;;;;5080743;23;20579;-89
2021/06/09 13:13:29;;;;;;;12.30;11.10;;;25.50;99.90;;;;;;5063981;28;20478;-87
2021/06/09 13:15:59;;;;;;;11.53;10.60;;;24.80;99.90;;;;;;5068895;28;20423;-89
2021/06/09 13:18:49;;;;;;;9.60;8.70;;;25.10;99.90;;;;;;5067488;23;20916;-91
2021/06/09 13:21:22;;;;;;;9.27;8.57;;;25.20;99.90;;;;;;5070308;28;20446;-91
2021/06/09 13:23:52;;;;;;;8.80;8.10;;;25.50;99.30;;;;;;5078891;23;20522;-89
2021/06/09 13:26:22;;;;;;;9.00;7.60;;;26.10;97.70;;;;;;5070043;28;20445;-90
2021/06/09 13:28:49;;;;;;;7.10;6.60;;;;;;;;;;5072297;28;20450;-89
2021/06/09 13:31:16;;;;;;;7.50;6.90;;;;;;;;;;5076982;28;20442;-89
2021/06/09 13:33:47;;;;;;;7.73;7.13;;;26.40;94.90;;;;;;5082891;23;20518;-90
2021/06/09 13:36:20;;;;;;;11.03;10.23;;;25.40;96.30;;;;;;5052888;28;20462;-91
2021/06/09 13:38:48;;;;;;;10.20;9.30;;;;;;;;;;5043378;28;20446;-92
2021/06/09 13:41:15;;;;;;;10.10;9.13;;;;;;;;;;5042269;28;20430;-90
2021/06/09 13:43:47;;;;;;;10.70;9.70;;;;;;;;;;5041574;28;20450;-89
2021/06/09 13:46:13;;;;;;;10.80;10.00;;;;;;;;;;5040258;28;20455;-92
2021/06/09 13:48:46;;;;;;;10.30;9.50;;;24.50;99.90;;;;;;5040834;28;20444;-92
2021/06/09 13:51:15;;;;;;;11.33;9.60;;;24.10;99.90;;;;;;5040014;28;20443;-93
2021/06/09 13:53:54;;;;;;;10.43;9.53;;;24.20;99.90;;;;;;5041232;28;20463;-92
2021/06/09 13:56:29;;;;;;;10.20;9.30;;;24.00;99.90;;;;;;5035454;28;20914;-91
2021/06/09 13:59:19;;;;;;;10.03;9.13;;;23.80;99.90;;;;;;5039946;28;20447;-91
2021/06/09 14:01:49;;;;;;;9.70;8.90;;;23.60;99.90;;;;;;5037643;28;20849;-89
2021/06/09 14:04:15;;;;;;;8.47;7.77;;;;;;;;;;5041372;28;20444;-93
2021/06/09 14:06:43;;;;;;;9.17;8.47;;;23.30;99.90;;;;;;5037324;28;20814;-92
2021/06/09 14:09:11;;;;;;;8.97;8.17;;;23.10;99.90;;;;;;5037488;28;20455;-93